createdAt,value
2023-04-06T00:02:12.067Z,9.27
2023-04-06T00:04:39.852Z,7.37
2023-04-06T00:07:07.705Z,5.83
2023-04-06T00:09:37.451Z,8.20
2023-04-06T00:12:05.253Z,8.20
2023-04-06T00:14:33.002Z,8.00
2023-04-06T00:17:00.926Z,6.10
2023-04-06T00:19:28.729Z,7.30
2023-04-06T00:21:56.646Z,6.00
2023-04-06T00:24:24.377Z,7.80
2023-04-06T00:26:54.424Z,7.33
2023-04-06T00:29:22.364Z,6.53
2023-04-06T00:31:50.495Z,7.47
2023-04-06T00:34:18.372Z,6.90
2023-04-06T00:36:46.242Z,7.17
2023-04-06T00:39:14.471Z,7.23
2023-04-06T00:41:47.369Z,8.00
2023-04-06T00:44:16.632Z,6.80
2023-04-06T00:46:44.411Z,7.77
2023-04-06T00:49:12.124Z,6.00
2023-04-06T00:51:40.018Z,8.00
2023-04-06T00:54:08.130Z,7.43
2023-04-06T00:56:36.423Z,7.27
2023-04-06T00:59:04.522Z,7.50
2023-04-06T01:01:34.587Z,7.17
2023-04-06T01:04:03.891Z,8.07
2023-04-06T01:06:32.264Z,7.53
2023-04-06T01:09:00.447Z,7.27
2023-04-06T01:11:28.289Z,6.93
2023-04-06T01:13:56.425Z,7.13
2023-04-06T01:16:24.236Z,5.20
2023-04-06T01:18:53.758Z,6.37
2023-04-06T01:21:21.603Z,5.87
2023-04-06T01:23:51.002Z,5.47
2023-04-06T01:26:18.765Z,5.73
2023-04-06T01:28:46.547Z,5.90
2023-04-06T01:31:14.683Z,6.23
2023-04-06T01:33:42.671Z,7.80
2023-04-06T01:36:10.987Z,7.63
2023-04-06T01:38:41.408Z,7.47
2023-04-06T01:41:10.920Z,8.00
2023-04-06T01:43:38.745Z,7.77
2023-04-06T01:46:06.849Z,6.43
2023-04-06T01:48:34.645Z,3.70
2023-04-06T01:51:02.736Z,5.87
2023-04-06T01:53:32.269Z,5.37
2023-04-06T01:56:00.402Z,6.30
2023-04-06T01:58:30.403Z,5.90
2023-04-06T02:00:58.339Z,5.20
2023-04-06T02:03:26.260Z,5.93
2023-04-06T02:05:54.120Z,6.10
2023-04-06T02:08:21.845Z,5.97
2023-04-06T02:10:49.817Z,5.17
2023-04-06T02:13:17.802Z,6.40
2023-04-06T02:15:48.624Z,6.67
2023-04-06T02:18:16.542Z,5.70
2023-04-06T02:20:44.228Z,7.77
2023-04-06T02:23:12.268Z,7.90
2023-04-06T02:25:40.140Z,7.57
2023-04-06T02:28:08.354Z,6.10
2023-04-06T02:30:36.646Z,5.87
2023-04-06T02:33:06.166Z,6.03
2023-04-06T02:35:34.077Z,5.53
2023-04-06T02:38:03.412Z,6.13
2023-04-06T02:40:31.475Z,6.90
2023-04-06T02:42:59.306Z,7.20
2023-04-06T02:45:27.573Z,6.57
2023-04-06T02:47:55.911Z,6.83
2023-04-06T02:50:25.530Z,7.13
2023-04-06T02:52:53.843Z,6.50
2023-04-06T02:55:22.461Z,5.73
2023-04-06T02:57:50.526Z,6.53
2023-04-06T03:00:19.070Z,4.50
2023-04-06T03:02:47.248Z,6.20
2023-04-06T03:05:15.165Z,6.10
2023-04-06T03:07:44.367Z,6.50
2023-04-06T03:10:12.319Z,6.07
2023-04-06T03:12:40.121Z,6.33
2023-04-06T03:15:09.487Z,5.93
2023-04-06T03:17:37.770Z,6.80
2023-04-06T03:20:07.615Z,4.17
2023-04-06T03:22:35.364Z,5.57
2023-04-06T03:25:05.183Z,5.70
2023-04-06T03:27:33.760Z,5.67
2023-04-06T03:30:01.620Z,5.70
2023-04-06T03:32:29.502Z,5.50
2023-04-06T03:34:57.825Z,5.73
2023-04-06T03:37:25.601Z,6.03
2023-04-06T03:39:54.199Z,4.97
2023-04-06T03:42:23.839Z,5.57
2023-04-06T03:44:51.850Z,5.50
2023-04-06T03:47:19.631Z,5.90
2023-04-06T03:49:47.372Z,4.93
2023-04-06T03:52:15.082Z,4.90
2023-04-06T03:54:42.945Z,4.90
2023-04-06T03:57:10.654Z,5.93
2023-04-06T03:59:40.089Z,4.33
2023-04-06T04:02:08.550Z,5.80
2023-04-06T04:04:36.497Z,5.30
2023-04-06T04:07:04.421Z,5.83
2023-04-06T04:09:32.377Z,6.27
2023-04-06T04:12:00.562Z,7.07
2023-04-06T04:14:28.510Z,7.80
2023-04-06T04:16:57.874Z,5.93
2023-04-06T04:19:27.034Z,5.63
2023-04-06T04:21:55.114Z,6.90
2023-04-06T04:24:23.122Z,6.07
2023-04-06T04:26:50.918Z,5.73
2023-04-06T04:29:22.350Z,6.03
2023-04-06T04:31:51.092Z,5.53
2023-04-06T04:34:24.932Z,6.07
2023-04-06T04:36:52.701Z,6.43
2023-04-06T04:39:20.470Z,5.17
2023-04-06T04:41:48.385Z,7.30
2023-04-06T04:44:16.286Z,6.47
2023-04-06T04:46:44.003Z,6.70
2023-04-06T04:49:12.981Z,6.70
2023-04-06T04:51:42.196Z,5.80
2023-04-06T04:54:09.995Z,6.10
2023-04-06T04:56:37.950Z,7.40
2023-04-06T04:59:05.935Z,6.63
2023-04-06T05:01:43.779Z,6.40
2023-04-06T05:04:19.638Z,5.60
2023-04-06T05:06:48.910Z,5.77
2023-04-06T05:09:16.691Z,6.20
2023-04-06T05:11:44.612Z,6.37
2023-04-06T05:14:13.571Z,6.30
2023-04-06T05:16:41.253Z,7.33
2023-04-06T05:19:11.244Z,5.73
2023-04-06T05:21:39.172Z,6.63
2023-04-06T05:24:09.676Z,5.50
2023-04-06T05:26:39.771Z,6.80
2023-04-06T05:29:07.912Z,7.20
2023-04-06T05:31:36.751Z,7.37
2023-04-06T05:34:05.108Z,7.00
2023-04-06T05:36:33.238Z,9.03
2023-04-06T05:39:01.214Z,7.13
2023-04-06T05:41:30.750Z,6.60
2023-04-06T05:43:58.944Z,7.57
2023-04-06T05:46:26.932Z,8.20
2023-04-06T05:48:54.822Z,7.63
2023-04-06T05:51:22.699Z,8.07
2023-04-06T05:53:50.552Z,8.73
2023-04-06T05:56:18.589Z,5.13
2023-04-06T05:58:48.138Z,5.80
2023-04-06T06:01:16.594Z,8.57
2023-04-06T06:03:44.419Z,8.80
2023-04-06T06:06:12.201Z,7.97
2023-04-06T06:08:40.069Z,9.53
2023-04-06T06:11:09.307Z,7.00
2023-04-06T06:13:37.072Z,9.50
2023-04-06T06:16:07.012Z,9.63
2023-04-06T06:18:35.344Z,8.77
2023-04-06T06:21:03.338Z,8.17
2023-04-06T06:23:31.488Z,10.00
2023-04-06T06:25:59.726Z,9.23
2023-04-06T06:28:27.713Z,9.40
2023-04-06T06:30:55.673Z,9.30
2023-04-06T06:33:25.149Z,9.33
2023-04-06T06:35:53.343Z,10.33
2023-04-06T06:38:23.783Z,10.33
2023-04-06T06:40:51.852Z,8.77
2023-04-06T06:43:19.652Z,8.33
2023-04-06T06:45:47.666Z,9.73
2023-04-06T06:48:15.888Z,10.10
2023-04-06T06:50:44.978Z,7.10
2023-04-06T06:53:12.861Z,9.50
2023-04-06T06:55:41.847Z,8.17
2023-04-06T06:58:09.557Z,9.47
2023-04-06T07:00:37.450Z,6.17
2023-04-06T07:03:05.249Z,7.93
2023-04-06T07:05:33.614Z,8.27
2023-04-06T07:08:02.800Z,8.17
2023-04-06T07:10:33.117Z,7.90
2023-04-06T07:13:01.710Z,8.33
2023-04-06T07:15:29.919Z,8.70
2023-04-06T07:18:01.991Z,7.87
2023-04-06T07:20:30.510Z,8.00
2023-04-06T07:22:58.280Z,8.73
2023-04-06T07:25:27.342Z,5.53
2023-04-06T07:27:55.123Z,8.23
2023-04-06T07:30:23.778Z,8.93
2023-04-06T07:32:52.025Z,9.17
2023-04-06T07:35:20.206Z,7.37
2023-04-06T07:37:48.016Z,8.60
2023-04-06T07:40:15.926Z,6.70
2023-04-06T07:42:45.171Z,7.43
2023-04-06T07:45:13.598Z,7.63
2023-04-06T07:47:41.778Z,6.63
2023-04-06T07:50:10.598Z,6.80
2023-04-06T07:52:38.656Z,7.67
2023-04-06T07:55:07.012Z,8.87
2023-04-06T07:57:35.342Z,7.27
2023-04-06T08:00:05.893Z,7.37
2023-04-06T08:02:35.240Z,6.97
2023-04-06T08:05:03.229Z,9.13
2023-04-06T08:07:31.256Z,6.87
2023-04-06T08:09:59.729Z,7.70
2023-04-06T08:12:27.558Z,5.50
2023-04-06T08:14:56.410Z,7.27
2023-04-06T08:17:25.726Z,8.87
2023-04-06T08:19:53.697Z,4.93
2023-04-06T08:22:21.454Z,5.43
2023-04-06T08:24:49.404Z,8.63
2023-04-06T08:27:17.104Z,8.77
2023-04-06T08:29:45.039Z,5.83
2023-04-06T08:32:12.938Z,6.90
2023-04-06T08:34:42.695Z,7.40
2023-04-06T08:37:10.914Z,5.03
2023-04-06T08:39:38.617Z,5.03
2023-04-06T08:42:06.513Z,6.27
2023-04-06T08:44:34.373Z,5.97
2023-04-06T08:47:02.615Z,6.60
2023-04-06T08:49:30.383Z,5.27
2023-04-06T08:52:00.177Z,4.63
2023-04-06T08:54:28.033Z,7.53
2023-04-06T08:56:57.644Z,6.73
2023-04-06T08:59:25.804Z,6.80
2023-04-06T09:01:54.108Z,7.23
2023-04-06T09:04:25.094Z,4.43
2023-04-06T09:06:53.465Z,8.63
2023-04-06T09:09:24.809Z,7.20
2023-04-06T09:11:53.876Z,6.83
2023-04-06T09:14:35.735Z,7.07
2023-04-06T09:17:03.707Z,7.00
2023-04-06T09:19:31.700Z,6.70
2023-04-06T09:22:05.718Z,5.90
2023-04-06T09:24:43.695Z,5.93
2023-04-06T09:27:11.699Z,6.50
2023-04-06T09:29:39.512Z,5.43
2023-04-06T09:32:09.087Z,7.00
2023-04-06T09:34:37.107Z,7.37
2023-04-06T09:37:14.068Z,7.17
2023-04-06T09:39:44.053Z,6.63
2023-04-06T09:42:12.089Z,8.10
2023-04-06T09:44:40.512Z,6.63
2023-04-06T09:47:09.406Z,4.27
2023-04-06T09:49:37.553Z,7.30
2023-04-06T09:52:06.425Z,6.87
2023-04-06T09:54:34.364Z,6.97
2023-04-06T09:57:12.010Z,5.73
2023-04-06T09:59:45.600Z,6.07
2023-04-06T10:02:31.700Z,7.63
2023-04-06T10:05:04.344Z,6.53
2023-04-06T10:07:32.508Z,5.97
2023-04-06T10:10:01.378Z,6.63
2023-04-06T10:12:30.566Z,5.83
2023-04-06T10:14:58.759Z,6.77
2023-04-06T10:17:26.562Z,4.53
2023-04-06T10:19:55.990Z,5.87
2023-04-06T10:22:27.245Z,6.03
2023-04-06T10:24:54.975Z,5.80
2023-04-06T10:27:31.446Z,5.63
2023-04-06T10:30:03.535Z,6.67
2023-04-06T10:32:36.971Z,5.57
2023-04-06T10:35:09.049Z,6.83
2023-04-06T10:37:48.575Z,7.77
2023-04-06T10:40:24.176Z,7.33
2023-04-06T10:42:53.564Z,6.00
2023-04-06T10:45:22.085Z,5.80
2023-04-06T10:47:50.020Z,6.63
2023-04-06T10:50:18.387Z,6.30
2023-04-06T10:52:48.720Z,5.70
2023-04-06T10:55:16.920Z,6.63
2023-04-06T10:57:45.019Z,6.80
2023-04-06T11:00:15.171Z,6.13
2023-04-06T11:02:42.987Z,7.43
2023-04-06T11:05:14.073Z,4.97
2023-04-06T11:07:42.135Z,6.07
2023-04-06T11:10:15.991Z,7.57
2023-04-06T11:12:45.829Z,7.23
2023-04-06T11:15:15.034Z,7.27
2023-04-06T11:17:42.968Z,6.53
2023-04-06T11:20:12.545Z,5.87
2023-04-06T11:22:49.943Z,6.07
2023-04-06T11:25:18.558Z,4.90
2023-04-06T11:27:47.343Z,6.23
2023-04-06T11:30:16.920Z,5.70
2023-04-06T11:32:45.481Z,6.20
2023-04-06T11:35:14.673Z,5.40
2023-04-06T11:37:45.211Z,6.20
2023-04-06T11:40:13.012Z,5.30
2023-04-06T11:42:42.709Z,5.53
2023-04-06T11:45:12.988Z,6.47
2023-04-06T11:47:44.092Z,5.53
2023-04-06T11:50:14.633Z,5.87
2023-04-06T11:52:43.351Z,6.70
2023-04-06T11:55:15.226Z,6.20
2023-04-06T11:57:44.567Z,5.60
2023-04-06T12:00:13.380Z,4.50
2023-04-06T12:02:47.457Z,3.97
2023-04-06T12:05:15.648Z,5.03
2023-04-06T12:07:43.856Z,7.43
2023-04-06T12:10:12.196Z,6.77
2023-04-06T12:12:40.469Z,6.90
2023-04-06T12:15:09.018Z,7.17
2023-04-06T12:17:38.116Z,6.57
2023-04-06T12:20:18.071Z,5.00
2023-04-06T12:22:53.005Z,5.30
2023-04-06T12:25:21.247Z,5.50
2023-04-06T12:27:49.241Z,4.10
2023-04-06T12:30:17.536Z,5.60
2023-04-06T12:32:46.293Z,6.43
2023-04-06T12:35:17.395Z,5.57
2023-04-06T12:37:46.271Z,5.90
2023-04-06T12:40:15.933Z,5.87
2023-04-06T12:42:43.967Z,5.53
2023-04-06T12:45:12.276Z,6.43
2023-04-06T12:47:40.164Z,5.17
2023-04-06T12:50:08.696Z,4.97
2023-04-06T12:52:37.924Z,4.10
2023-04-06T12:55:06.334Z,5.00
2023-04-06T12:57:34.340Z,5.70
2023-04-06T13:00:02.244Z,5.93
2023-04-06T13:02:30.090Z,6.17
2023-04-06T13:04:59.025Z,5.77
2023-04-06T13:07:26.780Z,5.60
2023-04-06T13:09:56.128Z,4.67
2023-04-06T13:12:24.387Z,6.17
2023-04-06T13:14:53.540Z,4.43
2023-04-06T13:17:22.221Z,5.93
2023-04-06T13:19:50.038Z,5.90
2023-04-06T13:22:18.129Z,6.97
2023-04-06T13:24:46.158Z,6.47
2023-04-06T13:27:15.604Z,6.87
2023-04-06T13:29:43.442Z,6.37
2023-04-06T13:32:13.872Z,6.53
2023-04-06T13:34:46.176Z,5.40
2023-04-06T13:37:14.424Z,5.40
2023-04-06T13:39:42.163Z,6.47
2023-04-06T13:42:11.471Z,5.37
2023-04-06T13:44:40.899Z,4.50
2023-04-06T13:47:08.672Z,7.07
2023-04-06T13:49:37.068Z,5.93
2023-04-06T13:52:04.965Z,6.27
2023-04-06T13:54:32.831Z,4.47
2023-04-06T13:57:01.749Z,6.37
2023-04-06T13:59:34.390Z,3.60
2023-04-06T14:02:03.760Z,5.10
2023-04-06T14:04:31.540Z,5.80
2023-04-06T14:06:59.241Z,5.30
2023-04-06T14:09:27.432Z,5.17
2023-04-06T14:11:58.299Z,5.70
2023-04-06T14:14:26.734Z,4.97
2023-04-06T14:16:55.718Z,6.07
2023-04-06T14:19:25.096Z,5.87
2023-04-06T14:21:53.149Z,6.40
2023-04-06T14:24:20.843Z,6.40
2023-04-06T14:26:48.833Z,6.50
2023-04-06T14:29:16.984Z,6.43
2023-04-06T14:31:44.720Z,6.43
2023-04-06T14:34:12.541Z,5.70
2023-04-06T14:36:41.943Z,5.20
2023-04-06T14:39:10.928Z,7.10
2023-04-06T14:41:38.868Z,6.03
2023-04-06T14:44:08.292Z,4.37
2023-04-06T14:46:36.282Z,5.83
2023-04-06T14:49:04.527Z,6.97
2023-04-06T14:51:32.436Z,7.07
2023-04-06T14:54:05.051Z,4.67
2023-04-06T14:56:32.955Z,6.07
2023-04-06T14:59:02.552Z,6.03
2023-04-06T15:01:30.673Z,7.30
2023-04-06T15:04:01.320Z,8.23
2023-04-06T15:06:29.203Z,5.80
2023-04-06T15:08:56.910Z,7.67
2023-04-06T15:11:27.132Z,5.53
2023-04-06T15:13:55.018Z,6.43
2023-04-06T15:16:23.096Z,6.20
2023-04-06T15:18:52.572Z,5.27
2023-04-06T15:21:21.301Z,5.33
2023-04-06T15:23:49.232Z,5.37
2023-04-06T15:26:17.245Z,5.17
2023-04-06T15:28:46.342Z,6.63
2023-04-06T15:34:05.130Z,5.67
2023-04-06T15:36:32.983Z,7.10
2023-04-06T15:39:01.990Z,5.37
2023-04-06T15:41:29.904Z,6.23
2023-04-06T15:43:59.006Z,5.90
2023-04-06T15:46:28.546Z,8.10
2023-04-06T15:48:56.846Z,6.73
2023-04-06T15:51:25.291Z,7.80
2023-04-06T15:53:55.464Z,5.63
2023-04-06T15:56:23.358Z,8.23
2023-04-06T15:58:51.353Z,9.83
2023-04-06T16:01:20.607Z,9.87
2023-04-06T16:03:48.632Z,9.77
2023-04-06T16:06:19.144Z,9.67
2023-04-06T16:08:47.133Z,8.03
2023-04-06T16:11:15.462Z,5.83
2023-04-06T16:13:45.227Z,8.23
2023-04-06T16:16:18.094Z,8.90
2023-04-06T16:18:47.545Z,7.23
2023-04-06T16:21:18.383Z,9.23
2023-04-06T16:23:47.667Z,8.40
2023-04-06T16:26:16.571Z,8.87
2023-04-06T16:28:44.350Z,9.07
2023-04-06T16:31:18.279Z,8.23
2023-04-06T16:33:47.959Z,9.67
2023-04-06T16:36:15.812Z,10.30
2023-04-06T16:38:43.679Z,8.30
2023-04-06T16:41:12.344Z,8.73
2023-04-06T16:43:40.181Z,8.47
2023-04-06T16:46:08.411Z,8.50
2023-04-06T16:48:36.549Z,8.80
2023-04-06T16:51:09.106Z,9.67
2023-04-06T16:53:39.895Z,9.83
2023-04-06T16:58:38.077Z,7.83
2023-04-06T17:01:06.416Z,8.80
2023-04-06T17:03:34.812Z,9.20
2023-04-06T17:06:03.077Z,8.67
2023-04-06T17:08:32.139Z,8.67
2023-04-06T17:11:04.000Z,8.13
2023-04-06T17:13:32.783Z,8.77
2023-04-06T17:16:00.572Z,8.77
2023-04-06T17:18:30.151Z,8.80
2023-04-06T17:20:58.169Z,8.03
2023-04-06T17:23:28.432Z,10.17
2023-04-06T17:25:57.940Z,9.17
2023-04-06T17:28:25.850Z,7.97
2023-04-06T17:30:53.652Z,9.73
2023-04-06T17:33:22.255Z,8.87
2023-04-06T17:35:51.624Z,9.07
2023-04-06T17:38:19.816Z,9.73
2023-04-06T17:40:47.882Z,9.90
2023-04-06T17:43:17.058Z,9.27
2023-04-06T17:45:44.852Z,8.77
2023-04-06T17:48:12.664Z,9.27
2023-04-06T17:50:40.751Z,6.67
2023-04-06T17:53:08.738Z,9.07
2023-04-06T17:55:38.385Z,9.30
2023-04-06T17:58:08.345Z,9.83
2023-04-06T18:00:37.687Z,9.30
2023-04-06T18:03:05.529Z,8.63
2023-04-06T18:05:33.327Z,8.93
2023-04-06T18:08:01.606Z,8.33
2023-04-06T18:10:29.497Z,10.50
2023-04-06T18:12:57.344Z,6.73
2023-04-06T18:15:25.067Z,9.00
2023-04-06T18:17:54.242Z,8.83
2023-04-06T18:20:22.234Z,9.23
2023-04-06T18:25:19.036Z,8.50
2023-04-06T18:27:46.686Z,8.93
2023-04-06T18:30:17.766Z,9.03
2023-04-06T18:32:45.587Z,8.67
2023-04-06T18:35:16.021Z,8.67
2023-04-06T18:37:43.904Z,9.20
2023-04-06T18:40:31.292Z,9.07
2023-04-06T18:42:59.075Z,8.30
2023-04-06T18:45:26.807Z,8.63
2023-04-06T18:47:55.673Z,9.50
2023-04-06T18:50:24.710Z,8.73
2023-04-06T18:52:52.932Z,9.17
2023-04-06T18:55:21.208Z,9.60
2023-04-06T18:57:49.007Z,8.80
2023-04-06T19:00:17.489Z,8.50
2023-04-06T19:02:45.875Z,8.57
2023-04-06T19:05:14.436Z,9.03
2023-04-06T19:07:43.704Z,9.43
2023-04-06T19:10:12.699Z,8.17
2023-04-06T19:12:40.418Z,8.47
2023-04-06T19:15:09.005Z,8.57
2023-04-06T19:17:38.294Z,9.60
2023-04-06T19:20:06.695Z,9.13
2023-04-06T19:22:36.142Z,9.07
2023-04-06T19:25:05.928Z,8.67
2023-04-06T19:27:33.985Z,8.70
2023-04-06T19:30:01.856Z,6.57
2023-04-06T19:32:30.934Z,8.30
2023-04-06T19:34:59.741Z,8.60
2023-04-06T19:37:27.582Z,9.50
2023-04-06T19:39:55.653Z,8.97
2023-04-06T19:42:25.989Z,8.37
2023-04-06T19:44:54.137Z,8.70
2023-04-06T19:47:22.684Z,8.23
2023-04-06T19:49:52.168Z,7.70
2023-04-06T19:52:21.457Z,9.37
2023-04-06T19:54:49.349Z,7.87
2023-04-06T19:57:17.585Z,8.00
2023-04-06T19:59:46.987Z,9.00
2023-04-06T20:02:14.896Z,6.87
2023-04-06T20:04:42.926Z,8.57
2023-04-06T20:07:10.886Z,7.73
2023-04-06T20:09:38.859Z,7.63
2023-04-06T20:12:07.099Z,6.40
2023-04-06T20:14:36.296Z,7.70
2023-04-06T20:17:06.041Z,7.83
2023-04-06T20:19:33.761Z,7.53
2023-04-06T20:22:03.808Z,7.93
2023-04-06T20:24:31.837Z,7.80
2023-04-06T20:26:59.834Z,7.17
2023-04-06T20:29:28.023Z,7.20
2023-04-06T20:31:56.301Z,7.17
2023-04-06T20:34:29.101Z,6.17
2023-04-06T20:36:58.353Z,7.20
2023-04-06T20:39:27.413Z,6.30
2023-04-06T20:41:55.368Z,6.50
2023-04-06T20:44:25.101Z,6.27
2023-04-06T20:46:53.042Z,6.53
2023-04-06T20:49:23.549Z,6.67
2023-04-06T20:51:53.112Z,5.67
2023-04-06T20:54:21.731Z,6.10
2023-04-06T20:56:49.832Z,6.40
2023-04-06T20:59:17.590Z,6.70
2023-04-06T21:01:45.632Z,6.87
2023-04-06T21:04:13.570Z,7.63
2023-04-06T21:06:41.642Z,7.17
2023-04-06T21:09:10.995Z,7.10
2023-04-06T21:11:38.829Z,6.40
2023-04-06T21:14:07.213Z,7.60
2023-04-06T21:16:34.966Z,6.87
2023-04-06T21:19:02.953Z,6.47
2023-04-06T21:21:30.871Z,8.07
2023-04-06T21:23:59.571Z,6.70
2023-04-06T21:26:29.937Z,6.70
2023-04-06T21:28:57.932Z,7.23
2023-04-06T21:31:26.134Z,6.80
2023-04-06T21:33:54.020Z,7.07
2023-04-06T21:36:22.113Z,6.63
2023-04-06T21:38:49.930Z,7.10
2023-04-06T21:41:17.679Z,7.10
2023-04-06T21:43:46.839Z,7.37
2023-04-06T21:46:14.633Z,7.10
2023-04-06T21:48:42.326Z,8.13
2023-04-06T21:51:10.174Z,7.83
2023-04-06T21:53:40.768Z,7.13
2023-04-06T21:56:08.686Z,7.30
2023-04-06T21:58:36.411Z,7.60
2023-04-06T22:01:10.420Z,7.63
2023-04-06T22:03:38.831Z,7.80
2023-04-06T22:06:07.067Z,6.53
2023-04-06T22:08:36.144Z,6.63
2023-04-06T22:11:08.546Z,7.17
2023-04-06T22:13:36.501Z,7.77
2023-04-06T22:16:06.180Z,6.90
2023-04-06T22:18:34.688Z,6.97
2023-04-06T22:21:04.455Z,6.63
2023-04-06T22:23:33.420Z,7.33
2023-04-06T22:26:01.334Z,6.93
2023-04-06T22:28:29.139Z,7.10
2023-04-06T22:30:56.748Z,7.63
2023-04-06T22:33:25.982Z,7.07
2023-04-06T22:35:53.723Z,7.00
2023-04-06T22:38:21.775Z,6.03
2023-04-06T22:40:49.827Z,7.67
2023-04-06T22:43:17.775Z,7.30
2023-04-06T22:45:45.553Z,8.00
2023-04-06T22:48:13.949Z,7.50
2023-04-06T22:50:43.370Z,7.33
2023-04-06T22:53:11.132Z,7.80
2023-04-06T22:55:40.540Z,7.57
2023-04-06T22:58:09.960Z,7.67
2023-04-06T23:00:37.664Z,7.47
2023-04-06T23:03:05.814Z,7.33
2023-04-06T23:05:34.150Z,6.87
2023-04-06T23:08:03.291Z,7.67
2023-04-06T23:10:31.594Z,7.10
2023-04-06T23:12:59.452Z,7.37
2023-04-06T23:15:27.292Z,7.53
2023-04-06T23:17:55.252Z,7.13
2023-04-06T23:20:23.089Z,7.23
2023-04-06T23:22:52.419Z,8.03
2023-04-06T23:25:21.801Z,7.30
2023-04-06T23:27:49.468Z,7.30
2023-04-06T23:30:17.214Z,7.73
2023-04-06T23:32:45.048Z,7.13
2023-04-06T23:35:13.029Z,7.93
2023-04-06T23:37:41.168Z,8.10
2023-04-06T23:40:10.017Z,10.20
2023-04-06T23:42:39.186Z,11.20
2023-04-06T23:45:07.504Z,11.47
2023-04-06T23:47:35.395Z,12.40
2023-04-06T23:50:03.245Z,12.17
2023-04-06T23:52:31.156Z,13.27
2023-04-06T23:54:59.204Z,12.40
2023-04-06T23:57:26.920Z,12.17
2023-04-06T23:59:57.814Z,13.93
